Time;durP1;ratioP1;P1;durP2;ratioP2;P2;SDS_P1;SDS_P2;PMS_P1;PMS_P2;Temp;Humidity;BMP_temperature;BMP_pressure;BME280_temperature;BME280_humidity;BME280_pressure;Samples;Min_cycle;Max_cycle;Signal;HPM_P1;HPM_P2
2023/03/11 00:01:52;;;;;;;;;;;;;;;;;;5094368;28;883;-70
2023/03/11 00:04:18;;;;;;;;;;;;;;;;;;5092382;28;1906;-69
2023/03/11 00:06:43;;;;;;;;;;;;;;;;;;5094168;28;896;-69
2023/03/11 00:09:08;;;;;;;;;;;;;;;;;;5092892;28;1066;-70
2023/03/11 00:11:34;;;;;;;;;;;;;;;;;;5092715;28;817;-70
2023/03/11 00:13:59;;;;;;;;;;;;;;;;;;5092529;28;987;-69
2023/03/11 00:16:24;;;;;;;;;;;;;;;;;;5091512;28;806;-70
2023/03/11 00:18:50;;;;;;;;;;;;;;;;;;5075289;28;1056;-70
2023/03/11 00:21:16;;;;;;;;;;;;;;;;;;5091685;28;1292;-70
2023/03/11 00:23:41;;;;;;;;;;;;;;;;;;5093387;28;931;-70
2023/03/11 00:26:07;;;;;;;;;;;;;;;;;;5091543;28;1918;-69
2023/03/11 00:28:32;;;;;;;;;;;;;;;;;;5093041;28;836;-69
2023/03/11 00:30:58;;;;;;;;;;;;;;;;;;5093390;28;943;-69
2023/03/11 00:33:23;;;;;;;;;;;;;;;;;;5092683;28;883;-69
2023/03/11 00:35:48;;;;;;;;;;;;;;;;;;5091663;28;1268;-69
2023/03/11 00:38:15;;;;;;;;;;;;;;;;;;5092236;28;880;-69
2023/03/11 00:40:41;;;;;;;;;;;;;;;;;;5092129;28;1343;-69
2023/03/11 00:43:06;;;;;;;;;;;;;;;;;;5092961;28;832;-69
2023/03/11 00:45:32;;;;;;;;;;;;;;;;;;5093274;28;1905;-69
2023/03/11 00:47:58;;;;;;;;;;;;;;;;;;5091493;28;1032;-69
2023/03/11 00:50:25;;;;;;;;;;;;;;;;;;5091758;28;1013;-69
2023/03/11 00:52:50;;;;;;;;;;;;;;;;;;5091421;28;1233;-69
2023/03/11 00:55:19;;;;;;;;;;;;;;;;;;5092256;28;813;-69
2023/03/11 00:57:44;;;;;;;;;;;;;;;;;;5092691;28;871;-69
2023/03/11 01:00:17;;;;;;;;;;;;;;;;;;5090942;28;1109;-69
2023/03/11 01:02:42;;;;;;;;;;;;;;;;;;5092557;28;955;-69
2023/03/11 01:05:08;;;;;;;;;;;;;;;;;;5092030;28;1957;-69
2023/03/11 01:07:33;;;;;;;;;;;;;;;;;;5092508;28;871;-69
2023/03/11 01:09:59;;;;;;;;;;;;;;;;;;5092539;28;903;-69
2023/03/11 01:12:24;;;;;;;;;;;;;;;;;;5090857;28;1272;-69
2023/03/11 01:14:49;;;;;;;;;;;;;;;;;;5090916;28;1161;-69
2023/03/11 01:17:14;;;;;;;;;;;;;;;;;;5091993;28;828;-69
2023/03/11 01:19:40;;;;;;;;;;;;;;;;;;5092328;28;868;-69
2023/03/11 01:22:05;;;;;;;;;;;;;;;;;;5090867;28;891;-69
2023/03/11 01:24:30;;;;;;;;;;;;;;;;;;5091868;28;1913;-69
2023/03/11 01:26:55;;;;;;;;;;;;;;;;;;5074363;28;1280;-69
2023/03/11 01:29:21;;;;;;;;;;;;;;;;;;5092712;28;782;-69
2023/03/11 01:31:46;;;;;;;;;;;;;;;;;;5091351;28;1273;-70
2023/03/11 01:34:11;;;;;;;;;;;;;;;;;;5091771;28;936;-69
2023/03/11 01:36:37;;;;;;;;;;;;;;;;;;5091099;28;1062;-69
2023/03/11 01:39:02;;;;;;;;;;;;;;;;;;5092661;28;915;-69
2023/03/11 01:41:27;;;;;;;;;;;;;;;;;;5092535;28;983;-69
2023/03/11 01:43:53;;;;;;;;;;;;;;;;;;5092491;28;1034;-69
2023/03/11 01:46:30;;;;;;;;;;;;;;;;;;5090712;28;1960;-69
2023/03/11 01:48:57;;;;;;;;;;;;;;;;;;5092214;28;860;-70
2023/03/11 01:51:43;;;;;;;;;;;;;;;;;;5094813;28;1174;-70
2023/03/11 01:54:19;;;;;;;;;;;;;;;;;;5095849;28;1011;-69
2023/03/11 01:56:45;;;;;;;;;;;;;;;;;;5096505;28;931;-69
2023/03/11 01:59:13;;;;;;;;;;;;;;;;;;5077402;28;1223;-70
2023/03/11 02:01:42;;;;;;;;;;;;;;;;;;5095836;28;844;-70
2023/03/11 02:04:08;;;;;;;;;;;;;;;;;;5096013;28;1099;-69
2023/03/11 02:06:34;;;;;;;;;;;;;;;;;;5094607;28;1909;-70
2023/03/11 02:09:00;;;;;;;;;;;;;;;;;;5095700;28;864;-70
2023/03/11 02:11:28;;;;;;;;;;;;;;;;;;5095186;28;959;-69
2023/03/11 02:13:55;;;;;;;;;;;;;;;;;;5094768;28;1227;-69
2023/03/11 02:16:20;;;;;;;;;;;;;;;;;;5095452;28;910;-70
2023/03/11 02:18:46;;;;;;;;;;;;;;;;;;5094517;28;825;-70
2023/03/11 02:21:27;;;;;;;;;;;;;;;;;;5094341;28;1283;-69
2023/03/11 02:23:59;;;;;;;;;;;;;;;;;;5094729;28;1119;-69
2023/03/11 02:26:42;;;;;;;;;;;;;;;;;;5093995;28;1902;-69
2023/03/11 02:29:09;;;;;;;;;;;;;;;;;;5096061;28;1010;-69
2023/03/11 02:31:36;;;;;;;;;;;;;;;;;;5094228;28;1166;-70
2023/03/11 02:34:03;;;;;;;;;;;;;;;;;;5095578;28;943;-70
2023/03/11 02:36:34;;;;;;;;;;;;;;;;;;5093671;28;1304;-70
2023/03/11 02:38:59;;;;;;;;;;;;;;;;;;5094045;28;1289;-70
2023/03/11 02:41:25;;;;;;;;;;;;;;;;;;5094871;28;907;-70
2023/03/11 02:43:50;;;;;;;;;;;;;;;;;;5094092;28;1258;-70
2023/03/11 02:46:16;;;;;;;;;;;;;;;;;;5093044;28;2008;-70
2023/03/11 02:48:42;;;;;;;;;;;;;;;;;;5094919;28;837;-70
2023/03/11 02:51:07;;;;;;;;;;;;;;;;;;5094704;28;870;-70
2023/03/11 02:53:38;;;;;;;;;;;;;;;;;;5077118;28;1194;-70
2023/03/11 02:56:03;;;;;;;;;;;;;;;;;;5095417;28;883;-70
2023/03/11 02:58:28;;;;;;;;;;;;;;;;;;5093682;28;1134;-70
2023/03/11 03:00:55;;;;;;;;;;;;;;;;;;5095031;28;969;-70
2023/03/11 03:03:20;;;;;;;;;;;;;;;;;;5077335;28;1292;-70
2023/03/11 03:05:45;;;;;;;;;;;;;;;;;;5094796;28;1977;-70
2023/03/11 03:08:11;;;;;;;;;;;;;;;;;;5095069;28;856;-70
2023/03/11 03:10:36;;;;;;;;;;;;;;;;;;5077088;28;1188;-70
2023/03/11 03:13:02;;;;;;;;;;;;;;;;;;5093384;28;902;-70
2023/03/11 03:15:27;;;;;;;;;;;;;;;;;;5092595;28;856;-70
2023/03/11 03:17:52;;;;;;;;;;;;;;;;;;5093609;28;851;-70
2023/03/11 03:20:19;;;;;;;;;;;;;;;;;;5094455;28;970;-70
2023/03/11 03:22:44;;;;;;;;;;;;;;;;;;5094388;28;941;-70
2023/03/11 03:25:10;;;;;;;;;;;;;;;;;;5093251;28;1913;-70
2023/03/11 03:27:35;;;;;;;;;;;;;;;;;;5094382;28;870;-69
2023/03/11 03:30:00;;;;;;;;;;;;;;;;;;5094393;28;836;-69
2023/03/11 03:32:26;;;;;;;;;;;;;;;;;;5092641;28;1289;-69
2023/03/11 03:34:57;;;;;;;;;;;;;;;;;;5093924;28;816;-69
2023/03/11 03:37:22;;;;;;;;;;;;;;;;;;5093706;28;852;-69
2023/03/11 03:39:47;;;;;;;;;;;;;;;;;;5094129;28;1190;-69
2023/03/11 03:42:13;;;;;;;;;;;;;;;;;;5106492;28;1167;-69
2023/03/11 03:44:38;;;;;;;;;;;;;;;;;;5110984;28;1932;-69
2023/03/11 03:47:03;;;;;;;;;;;;;;;;;;5114470;28;939;-69
2023/03/11 03:49:28;;;;;;;;;;;;;;;;;;5112626;28;1150;-70
2023/03/11 03:51:54;;;;;;;;;;;;;;;;;;5112567;28;1201;-69
2023/03/11 03:54:19;;;;;;;;;;;;;;;;;;5114063;28;954;-69
2023/03/11 03:56:44;;;;;;;;;;;;;;;;;;5114436;28;868;-70
2023/03/11 03:59:09;;;;;;;;;;;;;;;;;;5114961;28;872;-70
2023/03/11 04:01:36;;;;;;;;;;;;;;;;;;5114004;28;848;-69
2023/03/11 04:04:02;;;;;;;;;;;;;;;;;;5095690;28;1400;-69
2023/03/11 04:06:27;;;;;;;;;;;;;;;;;;5112717;28;1910;-69
2023/03/11 04:08:53;;;;;;;;;;;;;;;;;;5112853;28;938;-69
2023/03/11 04:11:18;;;;;;;;;;;;;;;;;;5113488;28;892;-69
2023/03/11 04:13:44;;;;;;;;;;;;;;;;;;5112211;28;1314;-69
2023/03/11 04:16:11;;;;;;;;;;;;;;;;;;5114051;28;876;-69
2023/03/11 04:18:37;;;;;;;;;;;;;;;;;;5113737;28;971;-69
2023/03/11 04:21:06;;;;;;;;;;;;;;;;;;5095687;28;1198;-69
2023/03/11 04:23:31;;;;;;;;;;;;;;;;;;5112250;28;1234;-69
2023/03/11 04:25:56;;;;;;;;;;;;;;;;;;5112480;28;1972;-69
2023/03/11 04:28:22;;;;;;;;;;;;;;;;;;5113450;28;895;-69
2023/03/11 04:30:47;;;;;;;;;;;;;;;;;;5114161;28;959;-69
2023/03/11 04:33:12;;;;;;;;;;;;;;;;;;5113708;28;828;-69
2023/03/11 04:35:37;;;;;;;;;;;;;;;;;;5113052;28;858;-69
2023/03/11 04:38:03;;;;;;;;;;;;;;;;;;5113547;28;855;-69
2023/03/11 04:40:28;;;;;;;;;;;;;;;;;;5111940;28;761;-69
2023/03/11 04:42:53;;;;;;;;;;;;;;;;;;5094992;28;1143;-69
2023/03/11 04:45:19;;;;;;;;;;;;;;;;;;5113529;28;1901;-69
2023/03/11 04:47:48;;;;;;;;;;;;;;;;;;5113204;28;899;-69
2023/03/11 04:50:13;;;;;;;;;;;;;;;;;;5113439;28;807;-69
2023/03/11 04:52:39;;;;;;;;;;;;;;;;;;5111689;28;1292;-69
2023/03/11 04:55:04;;;;;;;;;;;;;;;;;;5112182;28;1002;-69
2023/03/11 04:57:29;;;;;;;;;;;;;;;;;;5111492;28;887;-69
2023/03/11 04:59:55;;;;;;;;;;;;;;;;;;5111952;28;915;-69
2023/03/11 05:02:20;;;;;;;;;;;;;;;;;;5112981;28;1049;-69
2023/03/11 05:04:45;;;;;;;;;;;;;;;;;;5112574;28;1968;-69
2023/03/11 05:07:11;;;;;;;;;;;;;;;;;;5094637;28;1237;-69
2023/03/11 05:09:36;;;;;;;;;;;;;;;;;;5111362;28;1006;-69
2023/03/11 05:12:03;;;;;;;;;;;;;;;;;;5111388;28;1256;-69
2023/03/11 05:14:28;;;;;;;;;;;;;;;;;;5113210;28;891;-69
2023/03/11 05:16:53;;;;;;;;;;;;;;;;;;5111547;28;1201;-69
2023/03/11 05:19:30;;;;;;;;;;;;;;;;;;5112462;28;820;-69
2023/03/11 05:21:56;;;;;;;;;;;;;;;;;;5112925;28;824;-69
2023/03/11 05:24:21;;;;;;;;;;;;;;;;;;5112118;28;1894;-69
2023/03/11 05:26:47;;;;;;;;;;;;;;;;;;5112351;28;959;-69
2023/03/11 05:29:12;;;;;;;;;;;;;;;;;;5112350;28;1129;-69
2023/03/11 05:31:37;;;;;;;;;;;;;;;;;;5112471;28;943;-69
2023/03/11 05:34:03;;;;;;;;;;;;;;;;;;5111358;28;1160;-69
2023/03/11 05:36:28;;;;;;;;;;;;;;;;;;5112620;28;829;-69
2023/03/11 05:38:53;;;;;;;;;;;;;;;;;;5113130;28;861;-69
2023/03/11 05:41:19;;;;;;;;;;;;;;;;;;5111421;28;777;-70
2023/03/11 05:43:44;;;;;;;;;;;;;;;;;;5110968;28;1253;-70
2023/03/11 05:46:10;;;;;;;;;;;;;;;;;;5112626;28;1905;-70
2023/03/11 05:48:36;;;;;;;;;;;;;;;;;;5112594;28;891;-70
2023/03/11 05:51:05;;;;;;;;;;;;;;;;;;5111283;28;1379;-70
2023/03/11 05:53:30;;;;;;;;;;;;;;;;;;5112246;28;824;-70
2023/03/11 05:55:59;;;;;;;;;;;;;;;;;;5094062;28;1289;-70
2023/03/11 05:58:24;;;;;;;;;;;;;;;;;;5111197;28;1254;-70
2023/03/11 06:00:50;;;;;;;;;;;;;;;;;;5112861;28;828;-70
2023/03/11 06:03:15;;;;;;;;;;;;;;;;;;5112871;28;916;-70
2023/03/11 06:05:44;;;;;;;;;;;;;;;;;;5111248;28;1910;-70
2023/03/11 06:08:09;;;;;;;;;;;;;;;;;;5111357;28;1293;-70
2023/03/11 06:10:35;;;;;;;;;;;;;;;;;;5112497;28;903;-70
2023/03/11 06:13:00;;;;;;;;;;;;;;;;;;5110906;28;1191;-70
2023/03/11 06:15:25;;;;;;;;;;;;;;;;;;5101384;28;1194;-70
2023/03/11 06:17:50;;;;;;;;;;;;;;;;;;5100057;28;1248;-70
2023/03/11 06:20:16;;;;;;;;;;;;;;;;;;5106110;28;1171;-70
2023/03/11 06:22:41;;;;;;;;;;;;;;;;;;5102359;28;1124;-70
2023/03/11 06:25:07;;;;;;;;;;;;;;;;;;5103430;28;1964;-70
2023/03/11 06:27:32;;;;;;;;;;;;;;;;;;5077445;28;1205;-70
2023/03/11 06:29:57;;;;;;;;;;;;;;;;;;5097158;28;1188;-70
2023/03/11 06:32:22;;;;;;;;;;;;;;;;;;5090336;28;1214;-70
2023/03/11 06:34:51;;;;;;;;;;;;;;;;;;5099118;28;1147;-71
2023/03/11 06:37:17;;;;;;;;;;;;;;;;;;5104806;28;1222;-70
2023/03/11 06:39:42;;;;;;;;;;;;;;;;;;5099099;28;1419;-70
2023/03/11 06:42:11;;;;;;;;;;;;;;;;;;5096483;28;1136;-71
2023/03/11 06:44:36;;;;;;;;;;;;;;;;;;5095471;28;1913;-71
2023/03/11 06:47:02;;;;;;;;;;;;;;;;;;5105544;28;1270;-71
2023/03/11 06:49:27;;;;;;;;;;;;;;;;;;5114084;28;1214;-71
2023/03/11 06:51:52;;;;;;;;;;;;;;;;;;5112653;28;1265;-71
2023/03/11 06:54:18;;;;;;;;;;;;;;;;;;5100196;28;1182;-71
2023/03/11 06:56:43;;;;;;;;;;;;;;;;;;5101163;28;1207;-71
2023/03/11 06:59:08;;;;;;;;;;;;;;;;;;5103029;28;1171;-71
2023/03/11 07:01:34;;;;;;;;;;;;;;;;;;5102063;28;1291;-71
2023/03/11 07:03:59;;;;;;;;;;;;;;;;;;5099364;28;1152;-71
2023/03/11 07:06:25;;;;;;;;;;;;;;;;;;5100692;28;1971;-70
2023/03/11 07:08:51;;;;;;;;;;;;;;;;;;5105936;28;1187;-71
2023/03/11 07:11:21;;;;;;;;;;;;;;;;;;5107616;28;1222;-71
2023/03/11 07:13:46;;;;;;;;;;;;;;;;;;5104125;28;1525;-72
2023/03/11 07:16:14;;;;;;;;;;;;;;;;;;5108001;28;1218;-71
2023/03/11 07:18:40;;;;;;;;;;;;;;;;;;5096415;28;1380;-71
2023/03/11 07:21:06;;;;;;;;;;;;;;;;;;5104823;28;1185;-71
2023/03/11 07:23:32;;;;;;;;;;;;;;;;;;5098976;28;1209;-71
2023/03/11 07:25:58;;;;;;;;;;;;;;;;;;5101982;28;1957;-71
2023/03/11 07:28:23;;;;;;;;;;;;;;;;;;5105133;28;1175;-71
2023/03/11 07:30:49;;;;;;;;;;;;;;;;;;5097577;28;1195;-71
2023/03/11 07:33:14;;;;;;;;;;;;;;;;;;5101026;28;1152;-71
2023/03/11 07:35:40;;;;;;;;;;;;;;;;;;5107380;28;1155;-71
2023/03/11 07:38:05;;;;;;;;;;;;;;;;;;5082738;28;1239;-71
2023/03/11 07:40:30;;;;;;;;;;;;;;;;;;5096867;28;1308;-71
2023/03/11 07:42:55;;;;;;;;;;;;;;;;;;5105372;28;1084;-71
2023/03/11 07:45:21;;;;;;;;;;;;;;;;;;5101380;28;1898;-71
2023/03/11 07:47:47;;;;;;;;;;;;;;;;;;5100619;28;1179;-71
2023/03/11 07:50:12;;;;;;;;;;;;;;;;;;5106997;28;1127;-71
2023/03/11 07:52:37;;;;;;;;;;;;;;;;;;5108342;28;1123;-71
2023/03/11 07:55:03;;;;;;;;;;;;;;;;;;5095917;28;1223;-71
2023/03/11 07:57:28;;;;;;;;;;;;;;;;;;5092804;28;1124;-71
2023/03/11 07:59:53;;;;;;;;;;;;;;;;;;5092746;28;1159;-71
2023/03/11 08:02:19;;;;;;;;;;;;;;;;;;5097623;28;1037;-71
2023/03/11 08:04:44;;;;;;;;;;;;;;;;;;5105394;28;1910;-71
2023/03/11 08:07:09;;;;;;;;;;;;;;;;;;5100390;28;1223;-70
2023/03/11 08:09:35;;;;;;;;;;;;;;;;;;5097097;28;1206;-70
2023/03/11 08:12:00;;;;;;;;;;;;;;;;;;5103885;28;1227;-71
2023/03/11 08:14:25;;;;;;;;;;;;;;;;;;5092486;28;1152;-70
2023/03/11 08:16:50;;;;;;;;;;;;;;;;;;5099473;28;1144;-70
2023/03/11 08:19:16;;;;;;;;;;;;;;;;;;5111993;28;1147;-70
2023/03/11 08:21:41;;;;;;;;;;;;;;;;;;5098186;28;1111;-70
2023/03/11 08:24:07;;;;;;;;;;;;;;;;;;5091320;28;1187;-70
2023/03/11 08:26:32;;;;;;;;;;;;;;;;;;5093407;28;1913;-70
2023/03/11 08:28:57;;;;;;;;;;;;;;;;;;5091257;28;1219;-70
2023/03/11 08:31:25;;;;;;;;;;;;;;;;;;5091319;28;1312;-72
2023/03/11 08:33:52;;;;;;;;;;;;;;;;;;5093079;28;946;-71
2023/03/11 08:36:18;;;;;;;;;;;;;;;;;;5093336;28;762;-71
2023/03/11 08:38:43;;;;;;;;;;;;;;;;;;5091142;28;1162;-71
2023/03/11 08:41:09;;;;;;;;;;;;;;;;;;5093150;28;947;-71
2023/03/11 08:43:34;;;;;;;;;;;;;;;;;;5092983;28;923;-70
2023/03/11 08:46:00;;;;;;;;;;;;;;;;;;5093143;28;1918;-71
2023/03/11 08:48:26;;;;;;;;;;;;;;;;;;5091529;28;1312;-70
2023/03/11 08:50:51;;;;;;;;;;;;;;;;;;5091728;28;1289;-71
2023/03/11 08:53:16;;;;;;;;;;;;;;;;;;5093399;28;868;-70
2023/03/11 08:55:41;;;;;;;;;;;;;;;;;;5091626;28;1231;-70
2023/03/11 08:58:07;;;;;;;;;;;;;;;;;;5091610;28;1021;-70
2023/03/11 09:00:32;;;;;;;;;;;;;;;;;;5093064;28;872;-71
2023/03/11 09:02:57;;;;;;;;;;;;;;;;;;5092090;28;1185;-71
2023/03/11 09:05:23;;;;;;;;;;;;;;;;;;5093386;28;2001;-71
2023/03/11 09:07:48;;;;;;;;;;;;;;;;;;5093702;28;848;-69
2023/03/11 09:10:14;;;;;;;;;;;;;;;;;;5093399;28;836;-70
2023/03/11 09:12:39;;;;;;;;;;;;;;;;;;5093100;28;821;-70
2023/03/11 09:15:05;;;;;;;;;;;;;;;;;;5091993;28;900;-69
2023/03/11 09:17:30;;;;;;;;;;;;;;;;;;5091704;28;1228;-69
2023/03/11 09:19:56;;;;;;;;;;;;;;;;;;5092903;28;880;-69
2023/03/11 09:22:21;;;;;;;;;;;;;;;;;;5093408;28;983;-69
2023/03/11 09:24:46;;;;;;;;;;;;;;;;;;5092612;28;1965;-69
2023/03/11 09:27:12;;;;;;;;;;;;;;;;;;5093020;28;845;-69
2023/03/11 09:29:37;;;;;;;;;;;;;;;;;;5092937;28;915;-69
2023/03/11 09:32:03;;;;;;;;;;;;;;;;;;5092685;28;912;-69
2023/03/11 09:34:28;;;;;;;;;;;;;;;;;;5090824;28;1258;-69
2023/03/11 09:36:53;;;;;;;;;;;;;;;;;;5092972;28;864;-69
2023/03/11 09:39:18;;;;;;;;;;;;;;;;;;5092606;28;809;-69
2023/03/11 09:41:54;;;;;;;;;;;;;;;;;;5091775;28;824;-69
2023/03/11 09:44:32;;;;;;;;;;;;;;;;;;5090727;28;1294;-70
2023/03/11 09:47:09;;;;;;;;;;;;;;;;;;5092205;28;1054;-70
2023/03/11 09:49:44;;;;;;;;;;;;;;;;;;5092353;28;883;-70
2023/03/11 09:52:12;;;;;;;;;;;;;;;;;;5092210;28;1002;-70
2023/03/11 09:54:39;;;;;;;;;;;;;;;;;;5093257;28;840;-71
2023/03/11 09:57:05;;;;;;;;;;;;;;;;;;5092535;28;856;-71
2023/03/11 09:59:31;;;;;;;;;;;;;;;;;;5092094;28;969;-71
2023/03/11 10:01:57;;;;;;;;;;;;;;;;;;5094061;28;1226;-71
2023/03/11 10:04:29;;;;;;;;;;;;;;;;;;5103218;28;1335;-71
2023/03/11 10:06:54;;;;;;;;;;;;;;;;;;5095001;28;1946;-71
2023/03/11 10:09:34;;;;;;;;;;;;;;;;;;5098664;28;1185;-71
2023/03/11 10:12:17;;;;;;;;;;;;;;;;;;5102150;28;1214;-71
2023/03/11 10:14:46;;;;;;;;;;;;;;;;;;5104074;28;1168;-71
2023/03/11 10:17:17;;;;;;;;;;;;;;;;;;5094669;28;1219;-71
2023/03/11 10:19:52;;;;;;;;;;;;;;;;;;5098286;28;1139;-71
2023/03/11 10:22:32;;;;;;;;;;;;;;;;;;5094079;28;1227;-72
2023/03/11 10:25:12;;;;;;;;;;;;;;;;;;5095714;28;2004;-71
2023/03/11 10:27:47;;;;;;;;;;;;;;;;;;5096023;28;828;-71
2023/03/11 10:30:45;;;;;;;;;;;;;;;;;;5094897;28;1160;-71
2023/03/11 10:33:19;;;;;;;;;;;;;;;;;;5071702;28;1207;-71
2023/03/11 10:35:48;;;;;;;;;;;;;;;;;;5094202;28;1217;-71
2023/03/11 10:38:18;;;;;;;;;;;;;;;;;;5094926;28;1363;-71
2023/03/11 10:40:45;;;;;;;;;;;;;;;;;;5096112;28;950;-71
2023/03/11 10:43:16;;;;;;;;;;;;;;;;;;5094886;28;1174;-71
2023/03/11 10:45:44;;;;;;;;;;;;;;;;;;5095888;28;1906;-72
2023/03/11 10:48:14;;;;;;;;;;;;;;;;;;5096049;28;989;-71
2023/03/11 10:50:44;;;;;;;;;;;;;;;;;;5096163;28;1061;-71
2023/03/11 10:53:13;;;;;;;;;;;;;;;;;;5095913;28;864;-71
2023/03/11 10:55:50;;;;;;;;;;;;;;;;;;5096120;28;935;-71
2023/03/11 10:58:17;;;;;;;;;;;;;;;;;;5096978;28;1152;-71
2023/03/11 11:00:42;;;;;;;;;;;;;;;;;;5096534;28;812;-70
2023/03/11 11:03:18;;;;;;;;;;;;;;;;;;5096564;28;1057;-70
2023/03/11 11:05:55;;;;;;;;;;;;;;;;;;5096180;28;1898;-70
2023/03/11 11:08:20;;;;;;;;;;;;;;;;;;5095093;28;1177;-70
2023/03/11 11:10:56;;;;;;;;;;;;;;;;;;5096195;28;950;-70
2023/03/11 11:13:26;;;;;;;;;;;;;;;;;;5095000;28;1415;-70
2023/03/11 11:16:03;;;;;;;;;;;;;;;;;;5095222;28;1173;-71
2023/03/11 11:18:31;;;;;;;;;;;;;;;;;;5094677;28;1357;-70
2023/03/11 11:21:01;;;;;;;;;;;;;;;;;;5094095;28;1230;-71
2023/03/11 11:23:46;;;;;;;;;;;;;;;;;;5095015;28;821;-71
2023/03/11 11:26:25;;;;;;;;;;;;;;;;;;5094710;28;1910;-70
2023/03/11 11:29:08;;;;;;;;;;;;;;;;;;5094817;28;947;-71
2023/03/11 11:31:33;;;;;;;;;;;;;;;;;;5094278;28;1210;-70
2023/03/11 11:33:58;;;;;;;;;;;;;;;;;;5094193;28;1206;-70
2023/03/11 11:36:26;;;;;;;;;;;;;;;;;;5094173;28;1273;-71
2023/03/11 11:38:53;;;;;;;;;;;;;;;;;;5094106;28;1112;-70
2023/03/11 11:41:20;;;;;;;;;;;;;;;;;;5095508;28;903;-70
2023/03/11 11:43:51;;;;;;;;;;;;;;;;;;5095444;28;856;-70
2023/03/11 11:46:35;;;;;;;;;;;;;;;;;;5093684;28;1910;-70
2023/03/11 11:49:00;;;;;;;;;;;;;;;;;;5094356;28;1444;-70
2023/03/11 11:51:32;;;;;;;;;;;;;;;;;;5094921;28;993;-70
2023/03/11 11:54:00;;;;;;;;;;;;;;;;;;5103483;28;1286;-70
2023/03/11 11:56:25;;;;;;;;;;;;;;;;;;5112442;28;1132;-70
2023/03/11 11:58:53;;;;;;;;;;;;;;;;;;5118138;28;1201;-70
2023/03/11 12:01:33;;;;;;;;;;;;;;;;;;5119386;28;820;-71
2023/03/11 12:04:17;;;;;;;;;;;;;;;;;;5120616;28;1053;-71
2023/03/11 12:06:51;;;;;;;;;;;;;;;;;;5119871;28;1985;-71
2023/03/11 12:09:36;;;;;;;;;;;;;;;;;;5117196;28;1177;-71
2023/03/11 12:12:20;;;;;;;;;;;;;;;;;;5116597;28;1465;-71
2023/03/11 12:14:46;;;;;;;;;;;;;;;;;;5116840;28;1300;-71
2023/03/11 12:17:12;;;;;;;;;;;;;;;;;;5118828;28;895;-70
2023/03/11 12:19:37;;;;;;;;;;;;;;;;;;5121208;28;749;-71
2023/03/11 12:22:08;;;;;;;;;;;;;;;;;;5121462;28;1014;-70
2023/03/11 12:24:37;;;;;;;;;;;;;;;;;;5120839;28;1186;-71
2023/03/11 12:27:05;;;;;;;;;;;;;;;;;;5119693;28;1094;-71
2023/03/11 12:29:33;;;;;;;;;;;;;;;;;;5117813;28;1256;-71
2023/03/11 12:32:00;;;;;;;;;;;;;;;;;;5116845;28;1203;-71
2023/03/11 12:34:27;;;;;;;;;;;;;;;;;;5122884;28;930;-71
2023/03/11 12:36:56;;;;;;;;;;;;;;;;;;5122184;28;832;-71
2023/03/11 12:39:32;;;;;;;;;;;;;;;;;;5121174;28;891;-71
2023/03/11 12:42:09;;;;;;;;;;;;;;;;;;5120170;28;827;-70
2023/03/11 12:44:36;;;;;;;;;;;;;;;;;;5112850;28;1043;-71
2023/03/11 12:47:03;;;;;;;;;;;;;;;;;;5096360;28;1975;-71
2023/03/11 12:49:48;;;;;;;;;;;;;;;;;;5114344;28;813;-71
2023/03/11 12:52:15;;;;;;;;;;;;;;;;;;5113998;28;983;-70
2023/03/11 12:54:41;;;;;;;;;;;;;;;;;;5114374;28;903;-71
2023/03/11 12:57:18;;;;;;;;;;;;;;;;;;5113850;28;895;-71
2023/03/11 12:59:47;;;;;;;;;;;;;;;;;;5113957;28;835;-71
2023/03/11 13:02:24;;;;;;;;;;;;;;;;;;5114298;28;943;-71
2023/03/11 13:04:49;;;;;;;;;;;;;;;;;;5114102;28;1899;-71
2023/03/11 13:07:20;;;;;;;;;;;;;;;;;;5114307;28;1108;-71
2023/03/11 13:09:58;;;;;;;;;;;;;;;;;;5114444;28;895;-71
2023/03/11 13:12:40;;;;;;;;;;;;;;;;;;5114243;28;982;-71
2023/03/11 13:15:25;;;;;;;;;;;;;;;;;;5114256;28;843;-71
2023/03/11 13:18:09;;;;;;;;;;;;;;;;;;5113938;28;852;-71
2023/03/11 13:20:37;;;;;;;;;;;;;;;;;;5112599;28;1367;-72
2023/03/11 13:23:11;;;;;;;;;;;;;;;;;;5114625;28;1049;-71
2023/03/11 13:25:37;;;;;;;;;;;;;;;;;;5113829;28;1969;-71
2023/03/11 13:28:21;;;;;;;;;;;;;;;;;;5115134;28;848;-71
2023/03/11 13:30:52;;;;;;;;;;;;;;;;;;5112991;28;1231;-71
2023/03/11 13:33:25;;;;;;;;;;;;;;;;;;5114777;28;813;-71
2023/03/11 13:36:06;;;;;;;;;;;;;;;;;;5113919;28;879;-72
2023/03/11 13:38:37;;;;;;;;;;;;;;;;;;5112384;28;1156;-71
2023/03/11 13:41:11;;;;;;;;;;;;;;;;;;5114082;28;879;-72
2023/03/11 13:43:42;;;;;;;;;;;;;;;;;;5112914;28;1252;-71
2023/03/11 13:46:13;;;;;;;;;;;;;;;;;;5116675;28;1902;-71
2023/03/11 13:48:44;;;;;;;;;;;;;;;;;;5117570;28;958;-71
2023/03/11 13:51:21;;;;;;;;;;;;;;;;;;5117023;28;1332;-71
2023/03/11 13:53:50;;;;;;;;;;;;;;;;;;5117271;28;1230;-71
2023/03/11 13:56:16;;;;;;;;;;;;;;;;;;5118849;28;879;-71
2023/03/11 13:58:42;;;;;;;;;;;;;;;;;;5116633;28;963;-71
2023/03/11 14:01:13;;;;;;;;;;;;;;;;;;5118326;28;883;-70
2023/03/11 14:03:44;;;;;;;;;;;;;;;;;;5116164;28;1269;-71
2023/03/11 14:06:19;;;;;;;;;;;;;;;;;;5117591;27;1910;-71
2023/03/11 14:08:54;;;;;;;;;;;;;;;;;;5117907;28;820;-71
2023/03/11 14:11:25;;;;;;;;;;;;;;;;;;5117666;28;820;-71
2023/03/11 14:13:51;;;;;;;;;;;;;;;;;;5116984;28;852;-71
2023/03/11 14:16:42;;;;;;;;;;;;;;;;;;5117208;28;831;-71
2023/03/11 14:19:07;;;;;;;;;;;;;;;;;;5117073;28;894;-72
2023/03/11 14:21:33;;;;;;;;;;;;;;;;;;5117461;28;839;-72
2023/03/11 14:23:59;;;;;;;;;;;;;;;;;;5116297;28;1305;-71
2023/03/11 14:26:28;;;;;;;;;;;;;;;;;;5117099;28;1971;-71
2023/03/11 14:28:55;;;;;;;;;;;;;;;;;;5117247;27;847;-71
2023/03/11 14:31:32;;;;;;;;;;;;;;;;;;5117006;28;947;-71
2023/03/11 14:34:03;;;;;;;;;;;;;;;;;;5115323;28;1304;-72
2023/03/11 14:36:28;;;;;;;;;;;;;;;;;;5115814;28;1186;-72
2023/03/11 14:38:53;;;;;;;;;;;;;;;;;;5116736;28;899;-72
2023/03/11 14:41:18;;;;;;;;;;;;;;;;;;5116367;28;942;-71
2023/03/11 14:43:47;;;;;;;;;;;;;;;;;;5116564;28;848;-71
2023/03/11 14:46:17;;;;;;;;;;;;;;;;;;5114703;28;1910;-71
2023/03/11 14:48:42;;;;;;;;;;;;;;;;;;5117248;28;887;-71
2023/03/11 14:51:16;;;;;;;;;;;;;;;;;;5115425;28;1201;-72
2023/03/11 14:53:45;;;;;;;;;;;;;;;;;;5116871;28;856;-71
2023/03/11 14:56:23;;;;;;;;;;;;;;;;;;5116484;28;813;-71
2023/03/11 14:58:56;;;;;;;;;;;;;;;;;;5116199;28;867;-71
2023/03/11 15:01:24;;;;;;;;;;;;;;;;;;5113183;28;1261;-71
2023/03/11 15:03:59;;;;;;;;;;;;;;;;;;5107889;28;1190;-72
2023/03/11 15:06:28;;;;;;;;;;;;;;;;;;5115748;28;1963;-71
2023/03/11 15:09:01;;;;;;;;;;;;;;;;;;5116963;28;1006;-71
2023/03/11 15:11:27;;;;;;;;;;;;;;;;;;5116947;28;976;-72
2023/03/11 15:13:53;;;;;;;;;;;;;;;;;;5116029;28;938;-71
2023/03/11 15:16:29;;;;;;;;;;;;;;;;;;5114297;28;1185;-71
2023/03/11 15:18:54;;;;;;;;;;;;;;;;;;5115788;28;1182;-72
2023/03/11 15:21:21;;;;;;;;;;;;;;;;;;5097753;28;1186;-70
2023/03/11 15:24:06;;;;;;;;;;;;;;;;;;5116444;28;1049;-70
2023/03/11 15:26:33;;;;;;;;;;;;;;;;;;5114526;28;1905;-71
2023/03/11 15:29:00;;;;;;;;;;;;;;;;;;5114985;28;1352;-71
2023/03/11 15:31:30;;;;;;;;;;;;;;;;;;5114677;28;1126;-71
2023/03/11 15:34:16;;;;;;;;;;;;;;;;;;5116333;28;823;-72
2023/03/11 15:36:54;;;;;;;;;;;;;;;;;;5108132;27;1102;-71
2023/03/11 15:39:40;;;;;;;;;;;;;;;;;;5116782;28;836;-71
2023/03/11 15:42:05;;;;;;;;;;;;;;;;;;5115337;28;1079;-70
2023/03/11 15:44:42;;;;;;;;;;;;;;;;;;5113664;28;1265;-71
2023/03/11 15:47:12;;;;;;;;;;;;;;;;;;5115330;28;1909;-71
2023/03/11 15:49:38;;;;;;;;;;;;;;;;;;5115809;28;887;-71
2023/03/11 15:52:03;;;;;;;;;;;;;;;;;;5115149;28;860;-71
2023/03/11 15:54:28;;;;;;;;;;;;;;;;;;5114057;28;1225;-71
2023/03/11 15:56:55;;;;;;;;;;;;;;;;;;5114749;28;1131;-71
2023/03/11 15:59:21;;;;;;;;;;;;;;;;;;5114207;28;932;-71
2023/03/11 16:01:46;;;;;;;;;;;;;;;;;;5096850;28;1451;-71
2023/03/11 16:04:17;;;;;;;;;;;;;;;;;;5114055;28;1272;-71
2023/03/11 16:06:42;;;;;;;;;;;;;;;;;;5113401;28;1909;-71
2023/03/11 16:09:08;;;;;;;;;;;;;;;;;;5113965;28;903;-71
2023/03/11 16:11:34;;;;;;;;;;;;;;;;;;5114862;28;876;-71
2023/03/11 16:13:59;;;;;;;;;;;;;;;;;;5113201;28;844;-71
2023/03/11 16:16:25;;;;;;;;;;;;;;;;;;5113796;28;1265;-71
2023/03/11 16:18:50;;;;;;;;;;;;;;;;;;5114333;28;1135;-70
2023/03/11 16:21:17;;;;;;;;;;;;;;;;;;5097437;28;1154;-70
2023/03/11 16:23:43;;;;;;;;;;;;;;;;;;5114240;28;1332;-70
2023/03/11 16:26:09;;;;;;;;;;;;;;;;;;5115531;28;1988;-69
2023/03/11 16:28:34;;;;;;;;;;;;;;;;;;5113554;28;1115;-70
2023/03/11 16:31:00;;;;;;;;;;;;;;;;;;5114779;28;1046;-70
2023/03/11 16:33:25;;;;;;;;;;;;;;;;;;5113744;28;1160;-70
2023/03/11 16:35:50;;;;;;;;;;;;;;;;;;5114323;28;1132;-70
2023/03/11 16:38:18;;;;;;;;;;;;;;;;;;5115178;28;875;-70
2023/03/11 16:40:43;;;;;;;;;;;;;;;;;;5113193;28;899;-70
2023/03/11 16:43:09;;;;;;;;;;;;;;;;;;5113161;28;1142;-69
2023/03/11 16:45:35;;;;;;;;;;;;;;;;;;5114668;28;1968;-70
2023/03/11 16:48:01;;;;;;;;;;;;;;;;;;5114882;27;938;-69
2023/03/11 16:50:27;;;;;;;;;;;;;;;;;;5114218;28;895;-70
2023/03/11 16:52:53;;;;;;;;;;;;;;;;;;5114570;28;915;-71
2023/03/11 16:55:18;;;;;;;;;;;;;;;;;;5113968;28;883;-72
2023/03/11 16:57:44;;;;;;;;;;;;;;;;;;5113843;28;879;-70
2023/03/11 17:00:10;;;;;;;;;;;;;;;;;;5114520;28;836;-72
2023/03/11 17:02:36;;;;;;;;;;;;;;;;;;5112610;28;1331;-71
2023/03/11 17:05:03;;;;;;;;;;;;;;;;;;5112528;28;1975;-70
2023/03/11 17:07:29;;;;;;;;;;;;;;;;;;5113692;28;1129;-70
2023/03/11 17:09:54;;;;;;;;;;;;;;;;;;5113020;28;1280;-70
2023/03/11 17:12:19;;;;;;;;;;;;;;;;;;5112910;28;857;-71
2023/03/11 17:14:45;;;;;;;;;;;;;;;;;;5113881;28;836;-70
2023/03/11 17:17:10;;;;;;;;;;;;;;;;;;5114481;28;900;-70